createdAt,value
2024-03-05T00:00:16.154Z,43.60
2024-03-05T00:05:20.599Z,43.90
2024-03-05T00:10:23.489Z,43.60
2024-03-05T00:15:27.786Z,43.60
2024-03-05T00:20:32.366Z,43.50
2024-03-05T00:25:35.290Z,43.40
2024-03-05T00:30:38.228Z,43.40
2024-03-05T00:35:43.291Z,43.40
2024-03-05T00:40:46.788Z,43.50
2024-03-05T00:45:49.720Z,43.20
2024-03-05T00:50:53.928Z,43.40
2024-03-05T00:55:56.994Z,43.20
2024-03-05T01:00:59.995Z,43.20
2024-03-05T01:06:05.011Z,43.10
2024-03-05T01:11:08.286Z,43.20
2024-03-05T01:16:11.860Z,43.00
2024-03-05T01:21:16.236Z,43.20
2024-03-05T01:26:19.267Z,43.40
2024-03-05T01:31:22.211Z,43.20
2024-03-05T01:36:26.868Z,43.20
2024-03-05T01:41:29.726Z,43.10
2024-03-05T01:46:32.999Z,43.40
2024-03-05T01:51:37.649Z,43.00
2024-03-05T01:56:40.630Z,43.30
2024-03-05T02:01:45.183Z,43.20
2024-03-05T02:06:49.806Z,43.20
2024-03-05T02:11:56.835Z,43.20
2024-03-05T02:17:02.764Z,42.90
2024-03-05T02:22:08.338Z,43.10
2024-03-05T02:27:17.223Z,43.10
2024-03-05T02:32:23.275Z,43.00
2024-03-05T02:37:28.161Z,42.80
2024-03-05T02:42:31.122Z,43.00
2024-03-05T02:47:34.144Z,42.70
2024-03-05T02:52:39.941Z,43.00
2024-03-05T02:57:43.666Z,42.90
2024-03-05T03:02:48.310Z,42.90
2024-03-05T03:07:53.204Z,43.10
2024-03-05T03:12:56.207Z,42.80
2024-03-05T03:17:59.217Z,42.90
2024-03-05T03:23:03.629Z,42.90
2024-03-05T03:28:06.941Z,42.80
2024-03-05T03:33:10.694Z,42.90
2024-03-05T03:38:15.597Z,42.80
2024-03-05T03:43:18.514Z,42.80
2024-03-05T03:48:21.481Z,43.00
2024-03-05T03:53:25.696Z,42.70
2024-03-05T03:58:28.842Z,42.70
2024-03-05T04:03:32.267Z,42.90
2024-03-05T04:08:36.547Z,42.90
2024-03-05T04:13:39.790Z,43.00
2024-03-05T04:18:42.999Z,42.90
2024-03-05T04:23:47.238Z,42.80
2024-03-05T04:28:51.125Z,42.50
2024-03-05T04:34:00.204Z,42.70
2024-03-05T04:39:04.592Z,43.00
2024-03-05T04:44:09.599Z,42.80
2024-03-05T04:49:12.482Z,43.10
2024-03-05T04:54:16.731Z,42.90
2024-03-05T04:59:19.708Z,42.80
2024-03-05T05:04:22.613Z,42.80
2024-03-05T05:09:26.824Z,42.90
2024-03-05T05:14:29.777Z,42.80
2024-03-05T05:19:32.790Z,42.80
2024-03-05T05:24:38.031Z,42.90
2024-03-05T05:29:42.708Z,42.70
2024-03-05T05:34:45.887Z,43.10
2024-03-05T05:39:50.116Z,42.80
2024-03-05T05:44:53.826Z,42.40
2024-03-05T05:49:56.920Z,42.30
2024-03-05T05:55:01.253Z,42.40
2024-03-05T06:00:08.745Z,42.10
2024-03-05T06:05:11.590Z,42.40
2024-03-05T06:10:19.268Z,42.10
2024-03-05T06:15:22.256Z,42.20
2024-03-05T06:20:25.214Z,42.20
2024-03-05T06:25:29.580Z,42.10
2024-03-05T06:30:32.693Z,42.20
2024-03-05T06:35:35.607Z,42.10
2024-03-05T06:40:40.101Z,42.40
2024-03-05T06:45:44.199Z,41.90
2024-03-05T06:50:53.466Z,42.20
2024-03-05T06:56:16.039Z,42.20
2024-03-05T07:01:21.305Z,42.20
2024-03-05T07:06:24.838Z,42.20
2024-03-05T07:11:30.516Z,42.10
2024-03-05T07:16:34.248Z,42.00
2024-03-05T07:21:37.657Z,42.20
2024-03-05T07:26:49.747Z,42.10
2024-03-05T07:31:59.883Z,42.00
2024-03-05T07:37:02.881Z,42.20
2024-03-05T07:42:07.321Z,42.10
2024-03-05T07:47:10.318Z,42.20
2024-03-05T07:52:13.308Z,42.10
2024-03-05T07:57:17.505Z,42.10
2024-03-05T08:02:20.452Z,42.70
2024-03-05T08:07:23.459Z,42.40
2024-03-05T08:12:27.785Z,42.70
2024-03-05T08:17:30.894Z,42.80
2024-03-05T08:22:35.556Z,42.80
2024-03-05T08:27:40.691Z,43.10
2024-03-05T08:32:44.897Z,43.00
2024-03-05T08:37:50.048Z,43.00
2024-03-05T08:42:55.378Z,43.00
2024-03-05T08:47:59.254Z,43.30
2024-03-05T08:53:04.095Z,43.30
2024-03-05T08:58:10.405Z,43.20
2024-03-05T09:03:13.896Z,43.20
2024-03-05T09:08:16.946Z,43.50
2024-03-05T09:13:21.605Z,43.20
2024-03-05T09:18:24.626Z,43.30
2024-03-05T09:23:27.616Z,43.00
2024-03-05T09:28:35.590Z,42.90
2024-03-05T09:33:39.947Z,42.90
2024-03-05T09:38:42.977Z,43.10
2024-03-05T09:43:48.444Z,43.00
2024-03-05T09:48:51.392Z,42.80
2024-03-05T09:53:54.824Z,42.20
2024-03-05T09:59:04.196Z,42.40
2024-03-05T10:04:07.336Z,42.60
2024-03-05T10:09:11.669Z,42.60
2024-03-05T10:14:15.920Z,42.30
2024-03-05T10:19:20.140Z,42.50
2024-03-05T10:24:31.246Z,42.30
2024-03-05T10:29:39.422Z,42.50
2024-03-05T10:34:44.489Z,42.40
2024-03-05T10:39:47.435Z,42.30
2024-03-05T10:44:52.876Z,42.00
2024-03-05T10:49:55.902Z,41.90
2024-03-05T10:54:59.247Z,42.00
2024-03-05T11:00:09.075Z,41.80
2024-03-05T11:05:12.132Z,41.70
2024-03-05T11:10:15.229Z,41.50
2024-03-05T11:15:19.686Z,41.70
2024-03-05T11:20:44.180Z,41.30
2024-03-05T11:25:48.397Z,40.60
2024-03-05T11:31:10.640Z,40.50
2024-03-05T11:36:23.968Z,40.60
2024-03-05T11:41:27.088Z,40.80
2024-03-05T11:46:45.931Z,40.60
2024-03-05T11:51:49.618Z,40.10
2024-03-05T11:56:58.036Z,39.90
2024-03-05T12:02:02.743Z,40.20
2024-03-05T12:07:08.419Z,40.10
2024-03-05T12:12:13.199Z,40.10
2024-03-05T12:17:19.788Z,40.30
2024-03-05T12:22:24.029Z,39.80
2024-03-05T12:27:27.465Z,39.80
2024-03-05T12:32:31.785Z,39.60
2024-03-05T12:37:35.346Z,39.40
2024-03-05T12:42:38.343Z,39.60
2024-03-05T12:47:42.687Z,39.60
2024-03-05T12:52:45.618Z,39.50
2024-03-05T12:57:48.506Z,39.80
2024-03-05T13:02:52.723Z,39.50
2024-03-05T13:07:55.649Z,39.70
2024-03-05T13:12:58.641Z,39.80
2024-03-05T13:18:02.917Z,39.80
2024-03-05T13:23:06.158Z,39.40
2024-03-05T13:28:09.105Z,39.60
2024-03-05T13:33:14.197Z,39.70
2024-03-05T13:38:17.158Z,39.50
2024-03-05T13:43:23.476Z,39.30
2024-03-05T13:48:28.204Z,40.60
2024-03-05T13:53:31.045Z,39.60
2024-03-05T13:58:36.185Z,39.50
2024-03-05T14:03:40.661Z,39.30
2024-03-05T14:08:44.459Z,39.50
2024-03-05T14:13:47.392Z,39.40
2024-03-05T14:18:52.169Z,39.50
2024-03-05T14:23:55.481Z,39.50
2024-03-05T14:29:02.050Z,39.50
2024-03-05T14:34:07.436Z,39.70
2024-03-05T14:39:15.985Z,39.90
2024-03-05T14:44:18.870Z,39.90
2024-03-05T14:49:23.409Z,40.20
2024-03-05T14:54:26.920Z,40.10
2024-03-05T14:59:30.171Z,40.20
2024-03-05T15:04:34.442Z,40.10
2024-03-05T15:09:37.856Z,40.10
2024-03-05T15:14:43.358Z,40.10
2024-03-05T15:19:50.634Z,40.30
2024-03-05T15:24:53.840Z,40.30
2024-03-05T15:29:56.764Z,40.10
2024-03-05T15:35:01.115Z,40.40
2024-03-05T15:40:16.205Z,40.70
2024-03-05T15:45:19.671Z,40.50
2024-03-05T15:50:24.921Z,40.70
2024-03-05T15:55:30.230Z,40.50
2024-03-05T16:00:36.379Z,40.70
2024-03-05T16:05:51.940Z,40.80
2024-03-05T16:11:03.675Z,40.80
2024-03-05T16:16:08.742Z,40.50
2024-03-05T16:21:14.302Z,40.40
2024-03-05T16:26:17.305Z,40.70
2024-03-05T16:31:20.150Z,40.50
2024-03-05T16:36:24.645Z,40.40
2024-03-05T16:41:28.431Z,40.00
2024-03-05T16:46:34.960Z,39.90
2024-03-05T16:51:43.116Z,39.80
2024-03-05T16:56:46.038Z,39.90
2024-03-05T17:01:49.037Z,39.90
2024-03-05T17:06:56.204Z,40.00
2024-03-05T17:12:01.554Z,39.60
2024-03-05T17:17:05.448Z,39.60
2024-03-05T17:22:10.689Z,39.50
2024-03-05T17:27:13.661Z,39.30
2024-03-05T17:32:16.555Z,39.30
2024-03-05T17:37:20.853Z,39.20
2024-03-05T17:42:24.041Z,39.30
2024-03-05T17:47:26.927Z,39.40
2024-03-05T17:52:31.158Z,39.20
2024-03-05T17:57:34.213Z,39.30
2024-03-05T18:02:37.137Z,39.30
2024-03-05T18:07:41.670Z,39.30
2024-03-05T18:12:45.244Z,39.10
2024-03-05T18:17:49.869Z,39.30
2024-03-05T18:22:54.330Z,39.30
2024-03-05T18:27:57.214Z,39.30
2024-03-05T18:33:00.454Z,39.60
2024-03-05T18:38:16.668Z,39.70
2024-03-05T18:43:29.523Z,39.60
2024-03-05T18:48:34.850Z,39.50
2024-03-05T18:53:43.785Z,39.70
2024-03-05T18:58:52.256Z,39.60
2024-03-05T19:04:05.012Z,39.80
2024-03-05T19:09:10.374Z,39.80
2024-03-05T19:14:13.813Z,39.80
2024-03-05T19:19:16.803Z,39.90
2024-03-05T19:24:21.410Z,39.70
2024-03-05T19:29:24.442Z,39.90
2024-03-05T19:34:27.381Z,39.90
2024-03-05T19:39:31.670Z,40.00
2024-03-05T19:44:34.875Z,40.00
2024-03-05T19:49:41.277Z,40.00
2024-03-05T19:54:48.844Z,40.00
2024-03-05T19:59:52.767Z,40.00
2024-03-05T20:04:55.760Z,39.90
2024-03-05T20:10:02.125Z,40.00
2024-03-05T20:15:09.681Z,40.10
2024-03-05T20:20:17.519Z,40.00
2024-03-05T20:25:23.898Z,40.10
2024-03-05T20:30:29.613Z,40.10
2024-03-05T20:35:32.552Z,40.10
2024-03-05T20:40:36.968Z,39.90
2024-03-05T20:45:39.848Z,40.10
2024-03-05T20:50:42.724Z,40.10
2024-03-05T20:55:47.957Z,40.10
2024-03-05T21:00:50.921Z,40.00
2024-03-05T21:05:53.783Z,40.20
2024-03-05T21:10:58.504Z,40.20
2024-03-05T21:16:02.111Z,40.00
2024-03-05T21:21:05.443Z,40.30
2024-03-05T21:26:20.937Z,40.20
2024-03-05T21:31:36.856Z,40.20
2024-03-05T21:36:40.474Z,40.10
2024-03-05T21:41:45.507Z,40.20
2024-03-05T21:46:48.595Z,40.50
2024-03-05T21:51:51.520Z,40.20
2024-03-05T21:56:56.285Z,40.20
2024-03-05T22:01:59.337Z,40.10
2024-03-05T22:07:02.323Z,40.30
2024-03-05T22:12:07.523Z,40.20
2024-03-05T22:17:10.644Z,40.30
2024-03-05T22:22:14.168Z,40.40
2024-03-05T22:27:18.892Z,40.30
2024-03-05T22:32:21.838Z,40.20
2024-03-05T22:37:24.799Z,40.30
2024-03-05T22:42:29.076Z,40.30
2024-03-05T22:47:32.047Z,40.40
2024-03-05T22:52:34.994Z,40.40
2024-03-05T22:57:39.314Z,40.50
2024-03-05T23:02:42.220Z,40.40
2024-03-05T23:07:45.170Z,40.40
2024-03-05T23:12:49.420Z,40.60
2024-03-05T23:17:52.354Z,40.40
2024-03-05T23:22:55.539Z,40.40
2024-03-05T23:27:59.768Z,40.60
2024-03-05T23:33:02.826Z,40.30
2024-03-05T23:38:06.191Z,40.40
2024-03-05T23:43:10.739Z,40.40
2024-03-05T23:48:13.614Z,40.60
2024-03-05T23:53:18.889Z,40.70
2024-03-05T23:58:23.167Z,40.60
